Time;durP1;ratioP1;P1;durP2;ratioP2;P2;SDS_P1;SDS_P2;PMS_P1;PMS_P2;Temp;Humidity;BMP_temperature;BMP_pressure;BME280_temperature;BME280_humidity;BME280_pressure;Samples;Min_cycle;Max_cycle;Signal;HPM_P1;HPM_P2
2023/08/20 00:00:47;;;;;;;28.67;10.50;;;;;;;-144.73;100.00;54473.38;4977044;28;20035;-74
2023/08/20 00:03:16;;;;;;;50.33;14.73;;;;;;;-144.73;100.00;54473.38;4977340;28;20033;-73
2023/08/20 00:05:42;;;;;;;30.98;9.68;;;;;;;-144.73;100.00;54440.53;4982587;28;20038;-74
2023/08/20 00:08:07;;;;;;;35.42;9.25;;;;;;;-144.73;100.00;54522.63;4985239;28;20110;-74
2023/08/20 00:10:33;;;;;;;26.20;9.27;;;;;;;-144.73;100.00;54477.47;4985214;28;20033;-74
2023/08/20 00:12:58;;;;;;;37.75;10.23;;;;;;;-144.73;100.00;54485.69;4989951;28;20081;-74
2023/08/20 00:15:27;;;;;;;44.28;10.52;;;;;;;-144.73;100.00;54469.28;4983532;28;20654;-74
2023/08/20 00:17:53;;;;;;;21.27;9.35;;;;;;;-144.73;100.00;54491.84;4987959;28;20038;-74
2023/08/20 00:20:19;;;;;;;31.25;9.98;;;;;;;-144.73;100.00;54518.53;4980417;28;20049;-74
2023/08/20 00:22:45;;;;;;;39.17;10.38;;;;;;;-144.73;100.00;54475.44;4983921;28;20030;-74
2023/08/20 00:25:12;;;;;;;38.60;9.50;;;;;;;-144.73;100.00;54516.47;4980832;28;20030;-74
2023/08/20 00:27:39;;;;;;;33.88;9.75;;;;;;;-144.73;100.00;54520.59;4992476;28;20079;-76
2023/08/20 00:30:04;;;;;;;34.08;9.80;;;;;;;-144.73;100.00;54506.22;4980480;28;20034;-74
2023/08/20 00:32:30;;;;;;;31.77;9.32;;;;;;;-144.73;100.00;54518.53;4961108;28;20496;-74
2023/08/20 00:34:55;;;;;;;38.90;11.13;;;;;;;-144.73;100.00;54491.84;4966679;28;20103;-72
2023/08/20 00:37:21;;;;;;;35.40;10.55;;;;;;;-144.73;100.00;54469.28;4964947;28;20042;-72
2023/08/20 00:39:46;;;;;;;35.70;10.68;;;;;;;-144.73;100.00;54549.31;4962100;28;20047;-72
2023/08/20 00:42:14;;;;;;;31.23;11.25;;;;;;;-144.73;100.00;54506.22;4984527;28;20118;-72
2023/08/20 00:44:41;;;;;;;34.05;9.93;;;;;;;-144.73;100.00;54522.63;4978042;28;20038;-72
2023/08/20 00:47:07;;;;;;;46.10;10.90;;;;;;;-144.73;100.00;54481.59;4982903;28;20025;-71
2023/08/20 00:49:33;;;;;;;45.42;12.02;;;;;;;-144.73;100.00;54489.81;4967831;28;20039;-73
2023/08/20 00:51:59;;;;;;;33.67;10.80;;;;;;;-144.73;100.00;54516.47;4978943;28;20023;-73
2023/08/20 00:54:26;;;;;;;39.30;11.80;;;;;;;-144.73;100.00;54555.47;4972801;28;20493;-73
2023/08/20 00:56:51;;;;;;;43.80;11.70;;;;;;;-144.73;100.00;54526.75;4981661;28;20061;-73
2023/08/20 00:59:18;;;;;;;46.75;12.10;;;;;;;-144.73;100.00;54518.53;4983081;28;20034;-73
2023/08/20 01:01:43;;;;;;;34.72;10.57;;;;;;;-144.73;100.00;54510.31;4976630;28;20029;-72
2023/08/20 01:04:09;;;;;;;33.83;11.52;;;;;;;-144.73;100.00;54493.91;4976252;28;20045;-72
2023/08/20 01:07:07;;;;;;;39.38;13.00;;;;;;;-144.73;100.00;54543.16;4975170;28;20014;-72
2023/08/20 01:09:42;;;;;;;41.90;11.95;;;;;;;-144.73;100.00;54465.16;4972382;28;20034;-72
2023/08/20 01:12:09;;;;;;;31.25;12.18;;;;;;;-144.73;100.00;54498.00;4966717;28;20027;-72
2023/08/20 01:14:41;;;;;;;43.15;11.55;;;;;;;-144.73;100.00;54514.44;4966414;28;20054;-72
2023/08/20 01:17:06;;;;;;;39.20;10.95;;;;;;;-144.73;100.00;54539.06;4967390;28;20054;-72
2023/08/20 01:19:32;;;;;;;32.88;10.77;;;;;;;-144.73;100.00;54518.53;4969923;28;20038;-72
2023/08/20 01:22:09;;;;;;;35.33;10.68;;;;;;;-144.73;100.00;54518.53;4939745;28;1164358;-72
2023/08/20 01:24:49;;;;;;;34.30;11.40;;;;;;;-144.73;100.00;54477.47;4974140;28;20039;-72
2023/08/20 01:27:42;;;;;;;38.20;10.85;;;;;;;-144.73;100.00;54518.53;4977091;28;20121;-72
2023/08/20 01:30:11;;;;;;;37.15;10.60;;;;;;;-144.73;100.00;54506.22;4985963;28;20140;-73
2023/08/20 01:32:41;;;;;;;31.83;10.95;;;;;;;-144.73;100.00;54510.31;4974227;28;20037;-72
2023/08/20 01:35:11;;;;;;;32.30;10.27;;;;;;;-144.73;100.00;54508.28;4981252;28;20035;-72
2023/08/20 01:37:36;;;;;;;28.10;9.43;;;;;;;-144.73;100.00;54489.81;4983592;28;20173;-72
2023/08/20 01:40:03;;;;;;;24.35;9.45;;;;;;;-144.73;100.00;54498.00;4975644;28;20106;-72
2023/08/20 01:42:29;;;;;;;33.75;12.05;;;;;;;-144.73;100.00;54530.84;4983518;28;20037;-72
2023/08/20 01:44:54;;;;;;;37.20;11.82;;;;;;;-144.73;100.00;54506.22;4979591;28;20027;-71
2023/08/20 01:47:19;;;;;;;31.25;10.65;;;;;;;-144.73;100.00;54502.13;4979295;28;20018;-74
2023/08/20 01:49:45;;;;;;;34.00;12.10;;;;;;;-144.73;100.00;54477.47;4988075;28;20046;-73
2023/08/20 01:52:10;;;;;;;30.90;10.27;;;;;;;-144.73;100.00;54485.69;4992377;28;20030;-73
2023/08/20 01:54:36;;;;;;;31.08;11.00;;;;;;;-144.73;100.00;54518.53;4991674;28;20041;-73
2023/08/20 01:57:01;;;;;;;39.28;11.48;;;;;;;-144.73;100.00;54530.84;4991665;28;20031;-74
2023/08/20 01:59:26;;;;;;;35.30;12.07;;;;;;;-144.73;100.00;54539.06;4990543;28;20069;-74
2023/08/20 02:01:52;;;;;;;38.83;11.77;;;;;;;-144.73;100.00;54485.69;4992109;28;20026;-73
2023/08/20 02:04:17;;;;;;;32.90;12.13;;;;;;;-144.73;100.00;54465.16;4991692;28;20034;-75
2023/08/20 02:06:42;;;;;;;36.72;11.55;;;;;;;-144.73;100.00;54543.16;4991954;28;20054;-74
2023/08/20 02:09:08;;;;;;;34.42;10.32;;;;;;;-144.73;100.00;54510.31;4991796;28;20030;-74
2023/08/20 02:11:35;;;;;;;32.38;10.48;;;;;;;-144.73;100.00;54506.22;4991752;28;20029;-74
2023/08/20 02:14:02;;;;;;;29.38;10.77;;;;;;;-144.73;100.00;54502.13;4991047;28;20068;-74
2023/08/20 02:16:27;;;;;;;27.88;10.75;;;;;;;-144.73;100.00;54502.13;4991724;28;20130;-73
2023/08/20 02:18:53;;;;;;;26.42;10.82;;;;;;;-144.73;100.00;54522.63;4991031;28;20078;-73
2023/08/20 02:21:18;;;;;;;26.52;10.40;;;;;;;-144.73;100.00;54522.63;4991611;28;20096;-74
2023/08/20 02:23:43;;;;;;;28.42;10.13;;;;;;;-144.73;100.00;54504.16;4991431;28;20026;-74
2023/08/20 02:26:09;;;;;;;34.75;13.18;;;;;;;-144.73;100.00;54518.53;4992243;28;20497;-74
2023/08/20 02:28:35;;;;;;;30.15;12.55;;;;;;;-144.73;100.00;54502.13;4991214;28;20054;-73
2023/08/20 02:31:04;;;;;;;22.42;9.82;;;;;;;-144.73;100.00;54491.84;4990765;28;20065;-73
2023/08/20 02:33:29;;;;;;;37.22;12.40;;;;;;;-144.73;100.00;54604.75;4992602;28;20080;-73
2023/08/20 02:35:55;;;;;;;41.58;14.48;;;;;;;-144.73;100.00;54539.06;4990434;28;20031;-73
2023/08/20 02:38:20;;;;;;;33.33;13.02;;;;;;;-144.73;100.00;54526.75;4991303;28;20478;-73
2023/08/20 02:40:45;;;;;;;36.03;12.48;;;;;;;-144.73;100.00;54506.22;4990770;28;20039;-73
2023/08/20 02:43:11;;;;;;;42.08;13.82;;;;;;;-144.73;100.00;54530.84;4991300;28;20263;-74
2023/08/20 02:45:43;;;;;;;38.33;13.10;;;;;;;-144.73;100.00;54551.38;4990520;28;20049;-75
2023/08/20 02:48:09;;;;;;;31.25;13.57;;;;;;;-144.73;100.00;54477.47;4991101;28;20034;-73
2023/08/20 02:50:34;;;;;;;26.73;12.43;;;;;;;-144.73;100.00;54485.69;4990065;28;20369;-74
2023/08/20 02:52:59;;;;;;;32.80;12.20;;;;;;;-144.73;100.00;54506.22;4992725;28;20072;-73
2023/08/20 02:55:25;;;;;;;41.08;12.48;;;;;;;-144.73;100.00;54526.75;4990397;28;20038;-73
2023/08/20 02:57:50;;;;;;;33.28;13.30;;;;;;;-144.73;100.00;54539.06;4991085;28;20041;-74
2023/08/20 03:00:15;;;;;;;33.45;14.27;;;;;;;-144.73;100.00;54526.75;4991607;28;20126;-73
2023/08/20 03:02:41;;;;;;;39.25;12.25;;;;;;;-144.73;100.00;54510.31;4990854;28;20052;-73
2023/08/20 03:05:08;;;;;;;38.72;14.32;;;;;;;-144.73;100.00;54495.97;4990520;28;20054;-74
2023/08/20 03:07:34;;;;;;;33.42;13.93;;;;;;;-144.73;100.00;54502.13;4991127;28;20057;-73
2023/08/20 03:09:59;;;;;;;26.80;13.98;;;;;;;-144.73;100.00;54514.44;4989929;28;20057;-73
2023/08/20 03:12:25;;;;;;;35.65;13.63;;;;;;;-144.73;100.00;54524.69;4991166;28;20037;-73
2023/08/20 03:14:50;;;;;;;33.90;12.68;;;;;;;-144.73;100.00;54555.47;4991450;28;20034;-73
2023/08/20 03:17:16;;;;;;;25.10;11.10;;;;;;;-144.73;100.00;54456.97;4991199;28;20026;-74
2023/08/20 03:19:55;;;;;;;39.58;13.00;;;;;;;-144.73;100.00;54539.06;4990223;28;20272;-74
2023/08/20 03:22:20;;;;;;;42.95;15.00;;;;;;;-144.73;100.00;54522.63;4990564;28;20022;-74
2023/08/20 03:24:45;;;;;;;40.40;16.55;;;;;;;-144.73;100.00;54520.59;4989818;28;20045;-73
2023/08/20 03:27:11;;;;;;;41.30;16.30;;;;;;;-144.73;100.00;54504.16;4990329;28;20037;-72
2023/08/20 03:29:36;;;;;;;36.30;14.80;;;;;;;-144.73;100.00;54461.06;4990094;28;20035;-73
2023/08/20 03:32:01;;;;;;;41.15;15.10;;;;;;;-144.73;100.00;54510.31;4990646;28;20034;-73
2023/08/20 03:34:27;;;;;;;40.70;14.68;;;;;;;-144.73;100.00;54539.06;4990023;28;20034;-73
2023/08/20 03:36:52;;;;;;;33.90;14.63;;;;;;;-144.73;100.00;54530.84;4992081;28;20026;-74
2023/08/20 03:39:18;;;;;;;29.05;12.35;;;;;;;-144.73;100.00;54506.22;4990214;28;20030;-73
2023/08/20 03:41:43;;;;;;;36.45;15.13;;;;;;;-144.73;100.00;54514.44;4990651;28;20036;-74
2023/08/20 03:44:08;;;;;;;48.85;16.77;;;;;;;-144.73;100.00;54514.44;4989848;28;20027;-74
2023/08/20 03:46:34;;;;;;;36.50;13.57;;;;;;;-144.73;100.00;54469.28;4991395;28;20026;-74
2023/08/20 03:48:59;;;;;;;48.80;15.43;;;;;;;-144.73;100.00;54506.22;4991454;28;20041;-73
2023/08/20 03:51:24;;;;;;;32.50;13.65;;;;;;;-144.73;100.00;54539.06;4990684;28;20018;-73
2023/08/20 03:53:50;;;;;;;20.75;9.57;;;;;;;-144.73;100.00;54473.38;4990689;28;20036;-73
2023/08/20 03:56:15;;;;;;;27.52;12.75;;;;;;;-144.73;100.00;54547.28;4991313;28;20043;-73
2023/08/20 03:58:40;;;;;;;28.15;12.82;;;;;;;-144.73;100.00;54495.97;4990057;28;20022;-73
2023/08/20 04:01:06;;;;;;;31.73;12.68;;;;;;;-144.73;100.00;54549.31;4990259;28;20034;-75
2023/08/20 04:03:32;;;;;;;30.95;12.90;;;;;;;-144.73;100.00;54539.06;4990753;28;20101;-75
2023/08/20 04:05:57;;;;;;;34.75;14.43;;;;;;;-144.73;100.00;54539.06;4989950;28;20038;-72
2023/08/20 04:08:22;;;;;;;37.15;14.40;;;;;;;-144.73;100.00;54510.31;4990302;28;20069;-73
2023/08/20 04:10:48;;;;;;;43.60;14.63;;;;;;;-144.73;100.00;54514.44;4989457;28;20286;-72
2023/08/20 04:13:13;;;;;;;39.08;14.85;;;;;;;-144.73;100.00;54522.63;4990698;28;20033;-73
2023/08/20 04:15:40;;;;;;;39.00;15.27;;;;;;;-144.73;100.00;54543.16;4989923;28;20041;-72
2023/08/20 04:18:06;;;;;;;30.38;12.63;;;;;;;-144.73;100.00;54604.75;4990592;28;20109;-73
2023/08/20 04:20:32;;;;;;;36.13;14.30;;;;;;;-144.73;100.00;54522.63;4989517;28;20331;-73
2023/08/20 04:22:57;;;;;;;23.40;11.60;;;;;;;-144.73;100.00;54522.63;4993072;28;20080;-74
2023/08/20 04:25:22;;;;;;;38.42;14.90;;;;;;;-144.73;100.00;54518.53;4993184;28;20442;-74
2023/08/20 04:27:48;;;;;;;42.60;17.55;;;;;;;-144.73;100.00;54518.53;4994342;28;20113;-74
2023/08/20 04:30:13;;;;;;;37.80;15.55;;;;;;;-144.73;100.00;54481.59;4993025;28;20038;-73
2023/08/20 04:32:39;;;;;;;33.03;13.70;;;;;;;-144.73;100.00;54512.38;4993941;28;20041;-74
2023/08/20 04:35:04;;;;;;;27.67;13.63;;;;;;;-144.73;100.00;54510.31;4992957;28;20477;-74
2023/08/20 04:37:30;;;;;;;37.90;16.25;;;;;;;-144.73;100.00;54543.16;4993479;28;20457;-73
2023/08/20 04:39:55;;;;;;;45.42;15.38;;;;;;;-144.73;100.00;54522.63;4993012;28;20501;-74
2023/08/20 04:42:20;;;;;;;34.65;17.08;;;;;;;-144.73;100.00;54539.06;4995254;28;20034;-74
2023/08/20 04:44:46;;;;;;;36.40;15.38;;;;;;;-144.73;100.00;54506.22;4993621;28;20027;-74
2023/08/20 04:47:12;;;;;;;39.53;16.65;;;;;;;-144.73;100.00;54604.75;4994323;28;20046;-73
2023/08/20 04:49:38;;;;;;;49.10;18.83;;;;;;;-144.73;100.00;54555.47;4994992;28;20091;-74
2023/08/20 04:52:03;;;;;;;31.48;14.25;;;;;;;-144.73;100.00;54524.69;4994126;28;20061;-74
2023/08/20 04:54:29;;;;;;;29.63;13.82;;;;;;;-144.73;100.00;54522.63;4992542;28;20026;-73
2023/08/20 04:56:54;;;;;;;38.70;16.70;;;;;;;-144.73;100.00;54539.06;4993283;28;20022;-74
2023/08/20 04:59:19;;;;;;;31.52;14.85;;;;;;;-144.73;100.00;54549.31;4992910;28;20041;-73
2023/08/20 05:01:45;;;;;;;41.40;16.90;;;;;;;-144.73;100.00;54555.47;4992862;28;20026;-73
2023/08/20 05:04:10;;;;;;;44.38;17.20;;;;;;;-144.73;100.00;54518.53;4993999;28;20551;-73
2023/08/20 05:06:36;;;;;;;46.10;18.00;;;;;;;-144.73;100.00;54520.59;4993019;28;20113;-73
2023/08/20 05:09:01;;;;;;;47.85;18.52;;;;;;;-144.73;100.00;54539.06;4992509;28;20449;-74
2023/08/20 05:11:28;;;;;;;39.72;17.92;;;;;;;-144.73;100.00;54604.75;4994618;28;20041;-73
2023/08/20 05:13:55;;;;;;;37.85;17.63;;;;;;;-144.73;100.00;54524.69;4992553;28;20456;-74
2023/08/20 05:16:20;;;;;;;44.45;17.38;;;;;;;-144.73;100.00;54539.06;4993824;28;20106;-73
2023/08/20 05:18:45;;;;;;;56.50;20.73;;;;;;;-144.73;100.00;54543.16;4994380;28;20113;-73
2023/08/20 05:21:13;;;;;;;81.43;29.80;;;;;;;-144.73;100.00;54485.69;4992185;28;20038;-73
2023/08/20 05:23:40;;;;;;;273.88;42.45;;;;;;;-144.73;100.00;54539.06;4992784;28;20030;-73
2023/08/20 05:26:06;;;;;;;97.40;25.40;;;;;;;-144.73;100.00;54506.22;4992135;28;20117;-74
2023/08/20 05:28:31;;;;;;;83.93;25.50;;;;;;;-144.73;100.00;54522.63;4991925;28;20029;-73
2023/08/20 05:30:57;;;;;;;148.18;35.20;;;;;;;-144.73;100.00;54514.44;4991706;28;20042;-73
2023/08/20 05:33:23;;;;;;;351.77;45.05;;;;;;;-144.73;100.00;54522.63;4992329;28;20064;-73
2023/08/20 05:35:49;;;;;;;101.00;31.77;;;;;;;-144.73;100.00;54514.44;4991474;28;20058;-73
2023/08/20 05:38:14;;;;;;;237.13;41.97;;;;;;;-144.73;100.00;54563.69;4994413;28;20029;-73
2023/08/20 05:40:39;;;;;;;249.07;49.40;;;;;;;-144.73;100.00;54559.59;4991460;28;20038;-73
2023/08/20 05:43:05;;;;;;;110.57;37.70;;;;;;;-144.73;100.00;54584.22;4993313;28;20409;-73
2023/08/20 05:45:30;;;;;;;159.30;42.22;;;;;;;-144.73;100.00;54502.13;4991827;28;20056;-74
2023/08/20 05:47:55;;;;;;;233.90;47.30;;;;;;;-144.73;100.00;54518.53;4992028;28;20026;-73
2023/08/20 05:50:21;;;;;;;229.25;44.95;;;;;;;-144.73;100.00;54539.06;4991827;28;20034;-73
2023/08/20 05:52:46;;;;;;;212.70;44.15;;;;;;;-144.73;100.00;54524.69;4992403;28;20389;-73
2023/08/20 05:55:11;;;;;;;280.98;56.95;;;;;;;-144.73;100.00;54526.75;4991916;28;20085;-73
2023/08/20 05:57:37;;;;;;;128.45;41.97;;;;;;;-144.73;100.00;54510.31;4991903;28;20474;-73
2023/08/20 06:00:04;;;;;;;143.48;45.72;;;;;;;-144.73;100.00;54522.63;4991502;28;20052;-74
2023/08/20 06:02:30;;;;;;;137.68;55.58;;;;;;;-144.73;100.00;54522.63;4992787;28;20034;-73
2023/08/20 06:04:55;;;;;;;136.00;44.47;;;;;;;-144.73;100.00;54510.31;4990870;28;20064;-73
2023/08/20 06:07:20;;;;;;;278.25;50.83;;;;;;;-144.73;100.00;54530.84;4991105;28;20029;-73
2023/08/20 06:09:46;;;;;;;193.25;42.35;;;;;;;-144.73;100.00;54514.44;4990377;28;20042;-74
2023/08/20 06:12:11;;;;;;;182.40;37.92;;;;;;;-144.73;100.00;54551.38;4993005;28;20065;-74
2023/08/20 06:14:37;;;;;;;244.98;41.38;;;;;;;-144.73;100.00;54518.53;4990984;28;20118;-73
2023/08/20 06:17:02;;;;;;;194.38;39.38;;;;;;;-144.73;100.00;54551.38;4991988;28;20063;-73
2023/08/20 06:19:28;;;;;;;116.30;32.22;;;;;;;-144.73;100.00;54588.31;4990622;28;20161;-74
2023/08/20 06:21:54;;;;;;;285.67;36.50;;;;;;;-144.73;100.00;54502.13;4991543;28;20049;-73
2023/08/20 06:24:19;;;;;;;130.02;34.78;;;;;;;-144.73;100.00;54504.16;4992260;28;20026;-73
2023/08/20 06:26:44;;;;;;;377.90;35.90;;;;;;;-144.73;100.00;54489.81;4991267;28;20022;-72
2023/08/20 06:29:10;;;;;;;264.38;38.63;;;;;;;-144.73;100.00;54557.53;4990804;28;20058;-74
2023/08/20 06:31:35;;;;;;;381.70;50.55;;;;;;;-144.73;100.00;54518.53;4991608;28;20106;-74
2023/08/20 06:34:00;;;;;;;328.00;39.80;;;;;;;-144.73;100.00;54543.16;4990827;28;20481;-74
2023/08/20 06:36:26;;;;;;;117.05;35.10;;;;;;;-144.73;100.00;54522.63;4991177;28;20030;-74
2023/08/20 06:38:51;;;;;;;174.18;24.75;;;;;;;-144.73;100.00;54547.28;4990889;28;20027;-74
2023/08/20 06:41:17;;;;;;;94.18;19.35;;;;;;;-144.73;100.00;54518.53;4992374;28;20410;-73
2023/08/20 06:43:43;;;;;;;210.32;24.13;;;;;;;-144.73;100.00;54555.47;4992032;28;20089;-74
2023/08/20 06:46:09;;;;;;;254.60;27.42;;;;;;;-144.73;100.00;54508.28;4991228;28;20101;-74
2023/08/20 06:48:34;;;;;;;120.40;25.73;;;;;;;-144.73;100.00;54559.59;4991947;28;20034;-74
2023/08/20 06:51:11;;;;;;;64.22;26.38;;;;;;;-144.73;100.00;54498.00;4992145;28;20045;-74
2023/08/20 06:53:36;;;;;;;152.10;30.05;;;;;;;-144.73;100.00;54547.28;4992766;28;20050;-74
2023/08/20 06:56:02;;;;;;;94.38;24.77;;;;;;;-144.73;100.00;54604.75;4990576;28;20039;-74
2023/08/20 06:58:27;;;;;;;230.68;29.75;;;;;;;-144.73;100.00;54516.47;4990494;28;20022;-74
2023/08/20 07:00:53;;;;;;;68.55;27.10;;;;;;;-144.73;100.00;54539.06;4989935;28;20091;-74
2023/08/20 07:03:19;;;;;;;254.95;33.25;;;;;;;-144.73;100.00;54514.44;4991472;28;20064;-74
2023/08/20 07:05:44;;;;;;;82.93;27.50;;;;;;;-144.73;100.00;54547.28;4992189;28;20065;-74
2023/08/20 07:08:09;;;;;;;49.10;22.77;;;;;;;-144.73;100.00;54508.28;4991740;28;20018;-74
2023/08/20 07:10:35;;;;;;;77.45;28.27;;;;;;;-144.73;100.00;54530.84;4990776;28;20034;-74
2023/08/20 07:13:00;;;;;;;71.88;29.73;;;;;;;-144.73;100.00;54471.31;4991935;28;20390;-74
2023/08/20 07:15:25;;;;;;;63.33;28.73;;;;;;;-144.73;100.00;54485.69;4990184;28;20371;-74
2023/08/20 07:17:51;;;;;;;73.38;32.35;;;;;;;-144.73;100.00;54563.69;4990722;28;20026;-74
2023/08/20 07:20:16;;;;;;;67.65;31.13;;;;;;;-144.73;100.00;54543.16;4991095;28;20049;-74
2023/08/20 07:22:42;;;;;;;65.80;33.83;;;;;;;-144.73;100.00;54539.06;4991978;28;20030;-74
2023/08/20 07:25:08;;;;;;;63.88;34.97;;;;;;;-144.73;100.00;54526.75;4990203;28;20108;-74
2023/08/20 07:27:33;;;;;;;81.50;35.28;;;;;;;-144.73;100.00;54518.53;4990708;28;20029;-74
2023/08/20 07:29:59;;;;;;;64.53;35.40;;;;;;;-144.73;100.00;54567.81;4990227;28;20034;-73
2023/08/20 07:32:24;;;;;;;63.58;34.70;;;;;;;-144.73;100.00;54539.06;4990642;28;20030;-74
2023/08/20 07:34:50;;;;;;;71.07;36.65;;;;;;;-144.73;100.00;54498.00;4989728;28;20034;-74
2023/08/20 07:37:15;;;;;;;57.70;34.85;;;;;;;-144.73;100.00;54514.44;4990290;28;20026;-74
2023/08/20 07:39:41;;;;;;;59.65;34.47;;;;;;;-144.73;100.00;54522.63;4989667;28;20041;-73
2023/08/20 07:42:06;;;;;;;66.05;35.22;;;;;;;-144.73;100.00;54510.31;4990934;28;20033;-73
2023/08/20 07:44:31;;;;;;;60.97;35.28;;;;;;;-144.73;100.00;54518.53;4990167;28;20056;-74
2023/08/20 07:46:57;;;;;;;61.72;35.33;;;;;;;-144.73;100.00;54555.47;4990632;28;20029;-74
2023/08/20 07:49:22;;;;;;;70.10;35.97;;;;;;;-144.73;100.00;54495.97;4990143;28;20074;-74
2023/08/20 07:51:49;;;;;;;71.10;39.97;;;;;;;-144.73;100.00;54520.59;4991118;28;20191;-74
2023/08/20 07:54:14;;;;;;;63.33;35.17;;;;;;;-144.73;100.00;54604.75;4989759;28;20034;-74
2023/08/20 07:56:39;;;;;;;64.78;36.55;;;;;;;-144.73;100.00;54604.75;4991817;28;20041;-74
2023/08/20 07:59:05;;;;;;;61.67;32.60;;;;;;;-144.73;100.00;54506.22;4992717;28;20092;-74
2023/08/20 08:01:30;;;;;;;48.08;27.38;;;;;;;-144.73;100.00;54498.00;4994057;28;20121;-74
2023/08/20 08:03:56;;;;;;;51.80;27.75;;;;;;;-144.73;100.00;54469.28;4993736;28;20028;-74
2023/08/20 08:06:23;;;;;;;56.63;30.15;;;;;;;-144.73;100.00;54473.38;4995120;28;20022;-74
2023/08/20 08:08:49;;;;;;;50.17;26.25;;;;;;;-144.73;100.00;54487.75;4985477;28;20097;-72
2023/08/20 08:11:14;;;;;;;44.75;25.50;;;;;;;-144.73;100.00;54504.16;4974715;28;20036;-72
2023/08/20 08:13:40;;;;;;;40.60;24.58;;;;;;;-144.73;100.00;54518.53;4975942;28;20097;-73
2023/08/20 08:16:05;;;;;;;41.78;23.23;;;;;;;-144.73;100.00;54479.53;4975160;28;20043;-72
2023/08/20 08:18:30;;;;;;;42.05;22.25;;;;;;;-144.73;100.00;54498.00;4975943;28;20081;-72
2023/08/20 08:20:56;;;;;;;36.70;21.48;;;;;;;-144.73;100.00;54489.81;4974785;28;20043;-72
2023/08/20 08:23:21;;;;;;;41.00;21.35;;;;;;;-144.73;100.00;54465.16;4975950;28;20022;-73
2023/08/20 08:25:46;;;;;;;30.75;18.00;;;;;;;-144.73;100.00;54473.38;4974846;28;20350;-72
2023/08/20 08:28:12;;;;;;;33.22;17.38;;;;;;;-144.73;100.00;54489.81;4976005;28;20033;-73
2023/08/20 08:30:38;;;;;;;23.30;12.50;;;;;;;-144.73;100.00;54469.28;4974784;28;20039;-73
2023/08/20 08:33:04;;;;;;;16.20;6.70;;;;;;;-144.73;100.00;54465.16;4975622;28;20038;-72
2023/08/20 08:35:29;;;;;;;19.92;5.78;;;;;;;-144.73;100.00;54489.81;4975107;28;20035;-72
2023/08/20 08:37:55;;;;;;;17.85;4.25;;;;;;;-144.73;100.00;54485.69;4975347;28;20031;-71
2023/08/20 08:40:21;;;;;;;16.42;4.28;;;;;;;-144.73;100.00;54481.59;4976730;28;20046;-71
2023/08/20 08:42:51;;;;;;;15.98;5.53;;;;;;;-144.73;100.00;54428.22;4975361;28;20027;-71
2023/08/20 08:45:20;;;;;;;11.98;4.50;;;;;;;-144.73;100.00;54502.13;4974722;28;20042;-71
2023/08/20 08:47:47;;;;;;;13.93;5.18;;;;;;;-144.73;100.00;54489.81;4974986;28;20058;-71
2023/08/20 08:50:13;;;;;;;9.82;3.90;;;;;;;-144.73;100.00;54481.59;4974106;28;20035;-71
2023/08/20 08:52:41;;;;;;;9.93;4.13;;;;;;;-144.73;100.00;54461.06;4976204;28;20093;-72
2023/08/20 08:55:08;;;;;;;11.43;3.60;;;;;;;-144.73;100.00;54473.38;4974734;28;20030;-72
2023/08/20 08:57:37;;;;;;;10.02;3.15;;;;;;;-144.73;100.00;54469.28;4974721;28;20121;-72
2023/08/20 09:00:03;;;;;;;9.65;3.20;;;;;;;-144.73;100.00;54452.84;4974374;28;20050;-72
2023/08/20 09:02:28;;;;;;;14.07;3.72;;;;;;;-144.73;100.00;54469.28;4974635;28;20023;-72
2023/08/20 09:04:54;;;;;;;13.63;3.22;;;;;;;-144.73;100.00;54469.28;4974187;28;20035;-73
2023/08/20 09:07:20;;;;;;;11.20;3.28;;;;;;;-144.73;100.00;54444.66;4974398;28;20023;-72
2023/08/20 09:09:46;;;;;;;10.50;3.25;;;;;;;-144.73;100.00;54498.00;4973759;28;20039;-73
2023/08/20 09:12:14;;;;;;;13.35;3.67;;;;;;;-144.73;100.00;54469.28;4975995;28;20030;-72
2023/08/20 09:14:39;;;;;;;11.63;3.95;;;;;;;-144.73;100.00;54456.97;4975924;28;20039;-72
2023/08/20 09:17:05;;;;;;;8.85;3.47;;;;;;;-144.73;100.00;54465.16;4975210;28;20037;-73
2023/08/20 09:19:37;;;;;;;11.45;3.38;;;;;;;-144.73;100.00;54407.69;4973941;28;20055;-72
2023/08/20 09:22:03;;;;;;;13.48;3.17;;;;;;;-144.73;100.00;54477.47;4974931;28;20030;-73
2023/08/20 09:24:42;;;;;;;12.43;3.70;;;;;;;-144.73;100.00;54420.00;4974781;28;20126;-72
2023/08/20 09:27:07;;;;;;;19.95;4.20;;;;;;;-144.73;100.00;54452.84;4974759;28;20073;-72
2023/08/20 09:29:43;;;;;;;8.60;3.03;;;;;;;-144.73;100.00;54452.84;4974459;28;20242;-72
2023/08/20 09:32:14;;;;;;;12.38;3.03;;;;;;;-144.73;100.00;54415.91;4976145;28;20034;-72
2023/08/20 09:34:39;;;;;;;11.60;3.17;;;;;;;-144.73;100.00;54465.16;4975948;28;20379;-74
2023/08/20 09:37:20;;;;;;;22.67;4.75;;;;;;;-144.73;100.00;54415.91;4975374;28;20023;-73
2023/08/20 09:39:45;;;;;;;9.75;3.10;;;;;;;-144.73;100.00;54424.13;4975022;28;20035;-73
2023/08/20 09:42:12;;;;;;;15.45;3.00;;;;;;;-144.73;100.00;54456.97;4974058;28;20049;-72
2023/08/20 09:44:40;;;;;;;10.63;2.90;;;;;;;-144.73;100.00;54452.84;4973650;28;20039;-72
2023/08/20 09:47:08;;;;;;;7.93;3.08;;;;;;;-144.73;100.00;54456.97;4973748;28;20022;-71
2023/08/20 09:49:45;;;;;;;13.15;3.17;;;;;;;-144.73;100.00;54489.81;4973027;28;20039;-72
2023/08/20 09:52:17;;;;;;;16.17;3.47;;;;;;;-144.73;100.00;54452.84;4975660;28;20031;-72
2023/08/20 09:55:08;;;;;;;16.73;3.50;;;;;;;-144.73;100.00;54432.31;4973254;28;20509;-72
2023/08/20 09:57:35;;;;;;;9.30;3.43;;;;;;;-144.73;100.00;54438.50;4974974;28;20359;-73
2023/08/20 10:00:03;;;;;;;15.90;4.55;;;;;;;-144.73;100.00;54420.00;4974016;28;20469;-73
2023/08/20 10:02:29;;;;;;;10.00;3.20;;;;;;;-144.73;100.00;54411.81;4977587;28;20022;-74
2023/08/20 10:04:55;;;;;;;11.65;4.03;;;;;;;-144.73;100.00;54417.97;4980077;28;20169;-73
2023/08/20 10:07:24;;;;;;;12.43;4.03;;;;;;;-144.73;100.00;54407.69;4980864;28;20113;-74
2023/08/20 10:09:51;;;;;;;9.07;3.33;;;;;;;-144.73;100.00;54456.97;4992940;28;20038;-74
2023/08/20 10:12:17;;;;;;;17.70;4.28;;;;;;;-144.73;100.00;54420.00;4998735;28;20464;-74
2023/08/20 10:14:42;;;;;;;13.95;4.05;;;;;;;-144.73;100.00;54428.22;4991507;28;20039;-73
2023/08/20 10:17:08;;;;;;;9.60;3.03;;;;;;;-144.73;100.00;54428.22;4980253;28;20080;-73
2023/08/20 10:19:37;;;;;;;19.15;4.22;;;;;;;-144.73;100.00;54397.44;4977849;28;20117;-73
2023/08/20 10:22:03;;;;;;;15.10;3.47;;;;;;;-144.73;100.00;54411.81;4977615;28;20069;-73
2023/08/20 10:24:50;;;;;;;14.48;3.83;;;;;;;-144.73;100.00;54422.06;4978434;28;20069;-73
2023/08/20 10:27:31;;;;;;;11.50;4.10;;;;;;;-144.73;100.00;54407.69;4987010;28;20019;-73
2023/08/20 10:29:58;;;;;;;17.65;4.00;;;;;;;-144.73;100.00;54411.81;4982248;28;20128;-73
2023/08/20 10:32:43;;;;;;;8.32;3.35;;;;;;;-144.73;100.00;54420.00;4979815;28;20049;-73
2023/08/20 10:35:09;;;;;;;17.48;4.38;;;;;;;-144.73;100.00;54387.19;4978972;28;20027;-73
2023/08/20 10:37:36;;;;;;;17.60;3.88;;;;;;;-144.73;100.00;54399.50;4978781;28;20023;-74
2023/08/20 10:40:01;;;;;;;16.73;3.97;;;;;;;-144.73;100.00;54436.44;4979523;28;20397;-73
2023/08/20 10:42:28;;;;;;;14.27;3.70;;;;;;;-144.73;100.00;54391.28;4980028;28;20026;-73
2023/08/20 10:45:05;;;;;;;15.48;3.40;;;;;;;-144.73;99.96;54430.28;4977411;28;20122;-74
2023/08/20 10:47:36;;;;;;;12.20;3.30;;;;;;;-144.73;99.12;54428.22;4977571;28;20041;-73
2023/08/20 10:50:02;;;;;;;14.40;3.20;;;;;;;-144.73;100.00;54397.44;4993742;28;20027;-72
2023/08/20 10:52:27;;;;;;;17.65;4.22;;;;;;;-144.73;100.00;54444.66;4980452;28;20029;-73